Time;durP1;ratioP1;P1;durP2;ratioP2;P2;SDS_P1;SDS_P2;PMS_P1;PMS_P2;Temp;Humidity;BMP_temperature;BMP_pressure;BME280_temperature;BME280_humidity;BME280_pressure;Samples;Min_cycle;Max_cycle;Signal;HPM_P1;HPM_P2
2023/02/23 00:02:04;;;;;;;1.73;1.60;;;;;;;12.04;49.11;99899.88;4399324;32;32598;-86
2023/02/23 00:04:33;;;;;;;0.52;0.52;;;;;;;12.14;48.72;99900.28;4422259;32;33585;-85
2023/02/23 00:07:01;;;;;;;1.73;1.42;;;;;;;12.37;48.09;99901.81;4428477;32;32897;-85
2023/02/23 00:09:34;;;;;;;1.60;1.50;;;;;;;12.19;48.57;99900.06;4394788;32;33620;-84
2023/02/23 00:12:06;;;;;;;2.20;1.30;;;;;;;12.20;48.33;99892.06;4395322;32;33950;-85
2023/02/23 00:14:39;;;;;;;1.83;1.00;;;;;;;12.14;48.69;99899.44;4407024;32;33217;-84
2023/02/23 00:17:13;;;;;;;1.37;1.27;;;;;;;12.32;48.15;99898.53;4366137;32;34338;-84
2023/02/23 00:19:42;;;;;;;1.92;1.83;;;;;;;11.83;49.12;99903.56;4374340;32;33167;-84
2023/02/23 00:22:11;;;;;;;0.85;0.85;;;;;;;11.77;49.49;99909.97;4404458;32;33955;-84
2023/02/23 00:24:41;;;;;;;1.58;1.48;;;;;;;11.72;49.54;99906.66;4400158;32;33177;-84
2023/02/23 00:27:11;;;;;;;3.58;2.10;;;;;;;11.69;50.00;99911.25;4374359;32;34762;-84
2023/02/23 00:29:40;;;;;;;2.90;2.45;;;;;;;11.84;49.67;99907.91;4379785;32;32039;-84
2023/02/23 00:32:07;;;;;;;1.70;1.35;;;;;;;11.86;49.34;99907.84;4384663;32;32232;-86
2023/02/23 00:34:35;;;;;;;0.15;0.15;;;;;;;11.32;51.21;99912.94;4406161;32;34481;-88
2023/02/23 00:37:04;;;;;;;0.30;0.30;;;;;;;11.48;50.60;99907.78;4407746;32;33716;-87
2023/02/23 00:39:34;;;;;;;2.33;1.52;;;;;;;11.82;49.59;99909.78;4414538;32;32921;-88
2023/02/23 00:42:02;;;;;;;1.05;0.70;;;;;;;11.79;49.53;99912.53;4393703;32;33513;-87
2023/02/23 00:44:33;;;;;;;3.45;2.80;;;;;;;11.41;50.44;99901.94;4393991;32;34305;-88
2023/02/23 00:47:09;;;;;;;2.00;1.08;;;;;;;11.40;50.54;99910.81;4389605;32;33586;-87
2023/02/23 00:49:37;;;;;;;1.37;1.27;;;;;;;11.61;49.58;99908.09;4388434;32;32613;-88
2023/02/23 00:52:05;;;;;;;0.82;0.82;;;;;;;11.60;50.02;99912.53;4367363;32;33506;-88
2023/02/23 00:54:33;;;;;;;5.60;2.58;;;;;;;11.67;49.44;99919.25;4374497;32;34127;-88
2023/02/23 00:57:03;;;;;;;0.28;0.28;;;;;;;11.69;49.54;99916.53;4395826;32;33174;-87
2023/02/23 00:59:32;;;;;;;2.20;1.65;;;;;;;11.64;49.85;99914.09;4391451;32;34357;-88
2023/02/23 01:02:00;;;;;;;1.70;1.60;;;;;;;11.80;48.98;99919.53;4409290;32;33376;-84
2023/02/23 01:04:28;;;;;;;1.65;1.55;;;;;;;11.63;49.42;99916.81;4433464;32;33527;-85
2023/02/23 01:06:55;;;;;;;0.37;0.37;;;;;;;11.35;49.97;99919.88;4423818;32;34223;-85
2023/02/23 01:09:26;;;;;;;0.77;0.77;;;;;;;11.10;50.48;99914.78;4433847;32;32742;-85
2023/02/23 01:11:55;;;;;;;1.60;1.48;;;;;;;11.52;49.34;99918.16;4441502;32;32759;-85
2023/02/23 01:14:23;;;;;;;0.13;0.13;;;;;;;10.90;50.75;99924.44;4426589;32;31572;-85
2023/02/23 01:16:51;;;;;;;0.25;0.25;;;;;;;10.72;51.00;99918.16;4416897;32;32932;-86
2023/02/23 01:19:19;;;;;;;0.75;0.75;;;;;;;11.14;49.99;99919.03;4419325;32;32768;-86
2023/02/23 01:21:48;;;;;;;2.22;2.08;;;;;;;11.08;50.14;99916.66;4449150;32;32641;-85
2023/02/23 01:24:17;;;;;;;0.28;0.28;;;;;;;11.23;49.48;99918.63;4452929;32;34123;-84
2023/02/23 01:26:46;;;;;;;0.37;0.37;;;;;;;11.21;49.30;99923.13;4433984;32;33091;-84
2023/02/23 01:29:15;;;;;;;0.55;0.40;;;;;;;10.81;50.19;99916.91;4365920;32;32617;-83
2023/02/23 01:31:45;;;;;;;0.90;0.90;;;;;;;10.85;49.78;99921.16;4347715;32;32735;-86
2023/02/23 01:34:15;;;;;;;0.13;0.10;;;;;;;10.78;49.71;99927.63;4357527;32;34130;-86
2023/02/23 01:36:44;;;;;;;1.40;1.27;;;;;;;10.83;49.50;99916.87;4364130;32;33481;-85
2023/02/23 01:39:17;;;;;;;0.65;0.65;;;;;;;10.39;50.43;99919.56;4367481;32;32576;-86
2023/02/23 01:41:46;;;;;;;0.80;0.80;;;;;;;10.67;50.11;99916.66;4351712;32;34216;-85
2023/02/23 01:44:14;;;;;;;0.47;0.47;;;;;;;10.96;49.35;99916.25;4372410;32;33561;-85
2023/02/23 01:46:44;;;;;;;2.17;1.33;;;;;;;10.75;49.89;99925.13;4400322;32;33646;-85
2023/02/23 01:49:18;;;;;;;1.00;0.95;;;;;;;10.61;49.96;99914.28;4320372;32;33295;-86
2023/02/23 01:51:50;;;;;;;2.08;1.98;;;;;;;10.64;49.88;99915.00;4383385;32;33570;-85
2023/02/23 01:54:20;;;;;;;0.88;0.88;;;;;;;10.45;51.03;99917.56;4408996;32;33689;-85
2023/02/23 01:56:56;;;;;;;0.10;0.10;;;;;;;10.50;50.20;99912.94;4350852;32;33730;-85
2023/02/23 01:59:33;;;;;;;1.23;0.80;;;;;;;10.76;49.13;99916.25;4384940;32;33330;-84
2023/02/23 02:02:04;;;;;;;0.10;0.10;;;;;;;10.73;49.34;99908.50;4388289;32;33239;-84
2023/02/23 02:04:43;;;;;;;0.20;0.20;;;;;;;10.84;48.99;99911.53;4396415;32;32330;-84
2023/02/23 02:07:13;;;;;;;1.85;1.25;;;;;;;10.57;49.60;99910.91;4386132;32;33023;-83
2023/02/23 02:10:16;;;;;;;6.10;1.20;;;;;;;10.58;49.87;99911.75;4359378;32;33958;-83
2023/02/23 02:12:30;;;;;;;0.20;0.20;;;;;;;10.91;48.90;99907.66;4358875;32;32176;-83
2023/02/23 02:14:59;;;;;;;0.17;0.17;;;;;;;10.89;48.96;99909.53;4375578;32;32911;-84
2023/02/23 02:17:52;;;;;;;2.60;0.82;;;;;;;10.98;48.64;99906.50;4372727;32;34184;-84
2023/02/23 02:20:51;;;;;;;1.60;1.50;;;;;;;10.72;49.44;99912.03;4346572;32;33821;-84
2023/02/23 02:23:55;;;;;;;0.88;0.80;;;;;;;10.99;48.84;99915.28;4374046;32;33325;-84
2023/02/23 02:26:52;;;;;;;0.32;0.32;;;;;;;10.72;49.34;99906.75;4361294;32;34568;-83
2023/02/23 02:29:25;;;;;;;0.30;0.20;;;;;;;10.62;49.44;99900.13;4343298;32;34039;-83
2023/02/23 02:32:17;;;;;;;0.52;0.52;;;;;;;10.79;49.67;99902.09;4346541;32;34419;-83
2023/02/23 02:35:33;;;;;;;1.87;0.85;;;;;;;10.91;48.66;99912.09;4377211;32;33333;-83
2023/02/23 02:38:15;;;;;;;0.75;0.75;;;;;;;10.67;49.17;99908.72;4337506;32;34716;-83
2023/02/23 02:40:53;;;;;;;;;;;;;;;11.19;47.56;99902.03;4349662;32;32961;-85
2023/02/23 02:43:42;;;;;;;3.90;1.98;;;;;;;10.75;49.28;99911.91;4389259;32;33784;-84
2023/02/23 02:46:37;;;;;;;0.10;0.10;;;;;;;10.74;48.92;99920.75;4361349;32;33782;-84
2023/02/23 02:49:21;;;;;;;0.93;0.93;;;;;;;10.51;49.80;99914.66;4365631;32;34116;-84
2023/02/23 02:52:06;;;;;;;1.20;1.10;;;;;;;10.53;49.43;99914.59;4370554;32;33410;-84
2023/02/23 02:54:39;;;;;;;3.95;1.55;;;;;;;10.86;48.61;99914.09;4342496;32;34129;-84
2023/02/23 02:57:07;;;;;;;4.93;2.33;;;;;;;10.89;48.47;99913.97;4324798;32;32192;-84
2023/02/23 04:17:38;;;;;;;3.95;1.17;;;;;;;10.54;49.50;99929.53;4379910;32;33040;-86
2023/02/23 04:20:07;;;;;;;0.10;0.10;;;;;;;10.98;48.13;99925.00;4384281;32;32691;-86
2023/02/23 04:22:34;;;;;;;2.50;0.50;;;;;;;10.86;48.24;99930.78;4425486;32;33884;-86
2023/02/23 04:25:04;;;;;;;1.25;1.10;;;;;;;10.60;49.15;99925.75;4384464;32;33151;-85
2023/02/23 04:27:32;;;;;;;0.75;0.55;;;;;;;10.88;48.21;99928.97;4362253;32;33776;-85
2023/02/23 04:30:02;;;;;;;2.60;1.58;;;;;;;10.98;47.87;99921.50;4385691;32;33222;-85
2023/02/23 04:32:30;;;;;;;0.47;0.47;;;;;;;10.74;48.39;99926.91;4405939;32;32831;-85
2023/02/23 04:34:58;;;;;;;1.77;0.37;;;;;;;10.56;48.79;99927.66;4420003;32;34045;-86
2023/02/23 04:37:25;;;;;;;0.93;0.93;;;;;;;10.69;48.55;99922.75;4438058;32;33014;-85
2023/02/23 04:39:53;;;;;;;9.52;2.95;;;;;;;10.52;48.79;99929.56;4427837;32;34584;-85
2023/02/23 04:42:21;;;;;;;0.47;0.45;;;;;;;10.74;48.45;99926.91;4386032;32;32601;-85
2023/02/23 04:44:49;;;;;;;4.85;1.67;;;;;;;10.75;48.29;99927.75;4430631;32;34180;-85
2023/02/23 04:47:16;;;;;;;0.65;0.65;;;;;;;10.88;47.84;99933.37;4428403;32;32978;-85
2023/02/23 04:49:44;;;;;;;9.10;0.80;;;;;;;11.01;47.50;99935.44;4408254;32;34092;-84
2023/02/23 04:52:12;;;;;;;0.00;0.00;;;;;;;10.54;48.21;99928.62;4430782;32;34676;-82
2023/02/23 04:54:40;;;;;;;2.90;1.27;;;;;;;10.51;48.60;99935.78;4429239;32;35299;-83
2023/02/23 04:57:08;;;;;;;0.40;0.40;;;;;;;10.02;49.95;99936.88;4420235;32;33792;-85
2023/02/23 04:59:36;;;;;;;1.40;1.10;;;;;;;10.24;49.15;99927.19;4398486;32;32841;-85
2023/02/23 05:02:04;;;;;;;0.13;0.13;;;;;;;10.38;49.12;99925.78;4411926;32;33032;-85
2023/02/23 05:04:34;;;;;;;1.10;0.47;;;;;;;10.11;49.62;99931.22;4432058;32;32656;-85
2023/02/23 05:07:02;;;;;;;1.50;1.35;;;;;;;10.19;49.48;99928.28;4423157;32;33357;-84
2023/02/23 05:09:30;;;;;;;2.45;1.45;;;;;;;10.03;49.96;99938.59;4400149;32;33683;-83
2023/02/23 05:11:58;;;;;;;1.52;1.42;;;;;;;10.03;49.63;99937.72;4432842;32;34067;-84
2023/02/23 05:14:26;;;;;;;1.65;0.77;;;;;;;10.11;49.61;99938.25;4416592;32;33769;-84
2023/02/23 05:16:54;;;;;;;2.00;0.93;;;;;;;10.46;48.60;99935.13;4398111;32;32220;-85
2023/02/23 05:19:22;;;;;;;0.77;0.55;;;;;;;10.25;49.35;99938.59;4392981;32;34706;-85
2023/02/23 05:21:49;;;;;;;0.88;0.88;;;;;;;10.03;49.72;99943.84;4352304;32;32980;-85
2023/02/23 05:24:19;;;;;;;1.70;1.37;;;;;;;10.13;49.64;99939.06;4385715;32;33105;-85
2023/02/23 05:26:47;;;;;;;5.53;2.40;;;;;;;9.83;50.57;99949.91;4401513;32;33362;-86
2023/02/23 05:29:15;;;;;;;0.55;0.55;;;;;;;9.96;50.18;99943.22;4425010;32;33394;-84
2023/02/23 05:31:43;;;;;;;1.58;1.33;;;;;;;10.13;49.63;99944.34;4406876;32;32884;-84
2023/02/23 05:34:11;;;;;;;18.33;1.65;;;;;;;10.07;49.51;99950.75;4424828;32;33270;-85
2023/02/23 05:36:39;;;;;;;0.52;0.52;;;;;;;10.08;49.64;99951.59;4424019;32;34118;-85
2023/02/23 05:39:06;;;;;;;2.62;1.80;;;;;;;9.96;49.94;99953.78;4374126;32;34314;-84
2023/02/23 05:41:34;;;;;;;1.67;1.58;;;;;;;9.92;50.13;99946.94;4415614;32;34275;-84
2023/02/23 05:44:02;;;;;;;1.90;1.52;;;;;;;10.07;49.64;99949.88;4402379;32;33308;-85
2023/02/23 05:46:29;;;;;;;1.05;1.05;;;;;;;9.73;50.72;99945.88;4398221;32;35015;-85
2023/02/23 05:49:00;;;;;;;3.78;1.65;;;;;;;9.88;50.10;99950.59;4389737;32;33298;-83
2023/02/23 05:51:29;;;;;;;1.33;1.27;;;;;;;9.63;50.78;99955.06;4368280;32;33844;-83
2023/02/23 05:53:57;;;;;;;0.68;0.68;;;;;;;9.77;50.54;99947.47;4375672;32;33091;-84
2023/02/23 05:56:26;;;;;;;3.17;1.55;;;;;;;9.78;50.39;99953.63;4326998;32;32343;-85
2023/02/23 05:58:56;;;;;;;0.88;0.88;;;;;;;9.84;50.28;99964.81;4373342;32;34156;-84
2023/02/23 06:01:26;;;;;;;0.10;0.10;;;;;;;9.77;50.36;99962.44;4326736;32;33349;-84
2023/02/23 06:03:54;;;;;;;0.28;0.28;;;;;;;9.85;49.96;99963.87;4340225;32;33126;-85
2023/02/23 06:06:24;;;;;;;0.47;0.47;;;;;;;9.91;49.91;99965.44;4347751;32;32645;-84
2023/02/23 06:08:52;;;;;;;5.55;2.10;;;;;;;9.80;49.93;99968.47;4301601;33;33764;-85
2023/02/23 06:11:20;;;;;;;1.58;1.48;;;;;;;9.95;49.79;99970.53;4357170;32;33929;-85
2023/02/23 06:13:48;;;;;;;1.92;1.83;;;;;;;10.29;49.03;99976.28;4375931;32;34530;-85
2023/02/23 06:16:16;;;;;;;1.02;0.88;;;;;;;9.99;49.68;99979.19;4376024;32;33389;-85
2023/02/23 06:18:44;;;;;;;1.02;1.02;;;;;;;9.80;50.13;99986.94;4366412;32;34491;-85
2023/02/23 06:21:12;;;;;;;0.35;0.35;;;;;;;9.70;49.78;99989.06;4324251;32;33100;-85
2023/02/23 06:23:39;;;;;;;3.65;0.88;;;;;;;9.69;49.70;99986.50;4376448;32;33591;-85
2023/02/23 06:26:08;;;;;;;0.35;0.35;;;;;;;9.74;49.76;99995.94;4415707;32;34268;-84
2023/02/23 06:28:35;;;;;;;1.05;0.95;;;;;;;9.58;50.11;99997.41;4397887;32;32996;-84
2023/02/23 06:31:05;;;;;;;1.77;0.82;;;;;;;9.53;50.14;100004.62;4391115;32;34355;-83
2023/02/23 06:33:33;;;;;;;2.25;2.08;;;;;;;9.85;49.28;99995.53;4373518;32;32638;-84
2023/02/23 06:36:01;;;;;;;0.45;0.45;;;;;;;9.73;49.58;100009.16;4356899;32;33587;-84
2023/02/23 06:38:28;;;;;;;0.70;0.70;;;;;;;9.64;49.87;100014.81;4349698;32;32975;-84
2023/02/23 06:40:56;;;;;;;0.37;0.37;;;;;;;9.89;49.54;100012.97;4324430;32;34767;-84
2023/02/23 06:43:24;;;;;;;1.35;1.27;;;;;;;10.44;48.11;100016.16;4334934;32;34587;-84
2023/02/23 06:45:52;;;;;;;1.50;1.40;;;;;;;10.21;48.52;100013.53;4357269;32;32447;-83
2023/02/23 06:48:19;;;;;;;2.10;1.83;;;;;;;10.31;48.14;100021.97;4373259;32;34617;-84
2023/02/23 06:50:47;;;;;;;2.30;2.17;;;;;;;10.18;48.12;100021.56;4364983;32;32578;-84
2023/02/23 06:53:14;;;;;;;1.40;1.35;;;;;;;9.68;49.07;100027.78;4355844;32;34057;-83
2023/02/23 06:55:42;;;;;;;2.62;2.40;;;;;;;10.02;48.82;100026.56;4384207;32;34028;-83
2023/02/23 06:58:10;;;;;;;0.95;0.95;;;;;;;10.12;48.06;100016.53;4369976;32;33483;-84
2023/02/23 07:00:41;;;;;;;0.13;0.13;;;;;;;10.18;48.37;100021.56;4349112;32;33535;-84
2023/02/23 07:03:10;;;;;;;0.85;0.85;;;;;;;9.85;48.47;100026.31;4355809;32;34426;-85
2023/02/23 07:05:37;;;;;;;0.55;0.43;;;;;;;9.71;50.22;100032.09;4371695;32;32947;-85
2023/02/23 07:08:05;;;;;;;1.67;0.80;;;;;;;10.16;48.33;100026.00;4369927;32;35025;-84
2023/02/23 07:10:33;;;;;;;0.70;0.70;;;;;;;10.29;47.55;100019.38;4337677;32;34278;-84
2023/02/23 07:13:01;;;;;;;0.75;0.75;;;;;;;10.34;47.52;100038.53;4359708;32;33183;-85
2023/02/23 07:15:29;;;;;;;0.35;0.35;;;;;;;10.08;47.96;100030.75;4347130;32;34279;-84
2023/02/23 07:17:57;;;;;;;4.47;1.12;;;;;;;9.71;48.53;100037.37;4392528;32;34000;-84
2023/02/23 07:20:24;;;;;;;2.72;2.50;;;;;;;10.03;48.31;100028.28;4361136;32;34389;-84
2023/02/23 07:22:53;;;;;;;3.80;1.17;;;;;;;9.71;48.98;100038.22;4363312;32;33625;-83
2023/02/23 07:25:21;;;;;;;0.57;0.57;;;;;;;9.81;48.39;100038.75;4416863;32;32610;-83
2023/02/23 07:27:50;;;;;;;2.65;2.22;;;;;;;10.21;47.76;100032.00;4401917;32;33027;-83
2023/02/23 07:30:18;;;;;;;33.60;2.67;;;;;;;10.18;47.42;100032.09;4422258;32;34459;-83
2023/02/23 07:32:46;;;;;;;0.10;0.10;;;;;;;10.07;48.83;100039.59;4439001;32;34199;-83
2023/02/23 07:35:14;;;;;;;0.20;0.20;;;;;;;10.23;47.06;100031.00;4456174;32;33969;-84
2023/02/23 07:37:41;;;;;;;0.70;0.70;;;;;;;10.13;47.35;100034.91;4423524;32;32077;-83
2023/02/23 07:40:10;;;;;;;1.35;0.57;;;;;;;10.33;46.98;100034.19;4428397;32;33140;-83
2023/02/23 07:42:37;;;;;;;0.15;0.15;;;;;;;10.40;47.04;100043.59;4433473;32;33588;-83
2023/02/23 07:45:05;;;;;;;0.68;0.43;;;;;;;10.15;46.88;100038.34;4421860;32;33830;-83
2023/02/23 07:47:33;;;;;;;3.53;2.05;;;;;;;10.09;47.26;100037.72;4412177;32;34701;-83
2023/02/23 07:50:02;;;;;;;2.60;1.02;;;;;;;10.15;46.73;100037.50;4402467;32;33822;-83
2023/02/23 07:52:29;;;;;;;0.30;0.30;;;;;;;9.92;47.02;100036.59;4388973;32;33310;-84
2023/02/23 07:54:57;;;;;;;0.47;0.47;;;;;;;10.40;46.59;100038.31;4399852;32;33309;-83
2023/02/23 07:57:25;;;;;;;1.55;1.45;;;;;;;10.52;46.53;100037.81;4411636;32;32890;-83
2023/02/23 07:59:55;;;;;;;4.37;2.90;;;;;;;10.27;46.81;100037.06;4427956;32;34692;-82
2023/02/23 08:02:23;;;;;;;3.25;2.55;;;;;;;10.35;46.85;100040.28;4390917;32;32592;-83
2023/02/23 08:04:53;;;;;;;3.03;0.88;;;;;;;10.91;45.12;100029.19;4379783;32;33624;-82
2023/02/23 08:07:21;;;;;;;1.20;1.12;;;;;;;10.82;44.67;100037.50;4389051;32;32695;-83
2023/02/23 08:09:48;;;;;;;0.20;0.20;;;;;;;10.43;46.01;100037.31;4403689;32;33383;-83
2023/02/23 08:12:16;;;;;;;2.10;1.95;;;;;;;10.21;46.88;100037.28;4378462;32;34027;-83
2023/02/23 08:14:44;;;;;;;1.83;1.73;;;;;;;10.27;46.79;100039.72;4394235;32;33125;-83
2023/02/23 08:17:11;;;;;;;0.47;0.47;;;;;;;10.31;47.05;100038.69;4414852;32;34231;-83
2023/02/23 08:19:39;;;;;;;0.43;0.43;;;;;;;10.33;46.64;100039.47;4370543;32;32169;-83
2023/02/23 08:22:07;;;;;;;0.10;0.10;;;;;;;10.29;46.17;100032.56;4328506;32;33266;-83
2023/02/23 08:24:36;;;;;;;1.83;1.73;;;;;;;10.18;46.12;100047.94;4334686;32;32635;-83
2023/02/23 08:27:04;;;;;;;0.20;0.20;;;;;;;10.45;46.60;100049.56;4374367;32;32438;-83
2023/02/23 08:29:33;;;;;;;2.05;0.55;;;;;;;10.54;45.93;100050.97;4331974;32;34238;-83
2023/02/23 08:32:02;;;;;;;13.80;1.27;;;;;;;10.28;47.12;100046.69;4387685;32;33802;-83
2023/02/23 08:34:30;;;;;;;2.33;1.33;;;;;;;10.69;45.61;100049.50;4390921;32;31789;-83
2023/02/23 08:36:58;;;;;;;0.50;0.35;;;;;;;10.59;45.78;100043.72;4384017;32;34656;-83
2023/02/23 08:39:26;;;;;;;0.20;0.20;;;;;;;10.44;46.76;100054.88;4389745;32;32837;-83
2023/02/23 08:41:54;;;;;;;1.75;1.42;;;;;;;10.52;47.08;100053.66;4404024;32;33808;-83
2023/02/23 08:44:21;;;;;;;0.73;0.70;;;;;;;11.09;44.73;100051.34;4380246;32;32824;-82
2023/02/23 08:46:49;;;;;;;0.90;0.85;;;;;;;11.17;44.19;100046.63;4364282;32;33793;-84
2023/02/23 08:49:17;;;;;;;0.80;0.80;;;;;;;11.30;44.19;100046.97;4390764;32;34047;-83
2023/02/23 08:51:45;;;;;;;0.37;0.37;;;;;;;10.87;46.00;100056.69;4393837;32;33247;-83
2023/02/23 08:54:15;;;;;;;1.50;1.35;;;;;;;10.60;45.41;100055.16;4405534;32;33457;-84
2023/02/23 08:56:43;;;;;;;0.50;0.50;;;;;;;10.85;44.52;100055.88;4410285;32;34786;-83
2023/02/23 08:59:12;;;;;;;0.80;0.80;;;;;;;10.76;44.74;100059.75;4437858;32;33819;-84
2023/02/23 09:01:41;;;;;;;1.08;0.90;;;;;;;10.65;44.69;100064.59;4427278;32;33529;-83
2023/02/23 09:04:09;;;;;;;7.37;2.05;;;;;;;11.00;44.57;100052.59;4422355;32;33027;-85
2023/02/23 09:06:36;;;;;;;0.30;0.30;;;;;;;10.95;44.52;100059.00;4409930;32;33751;-83
2023/02/23 09:09:04;;;;;;;4.43;1.08;;;;;;;10.74;45.00;100058.09;4392427;32;32886;-83
2023/02/23 09:11:31;;;;;;;0.68;0.68;;;;;;;10.98;44.55;100057.09;4393954;32;34625;-85
2023/02/23 09:13:59;;;;;;;0.20;0.20;;;;;;;10.88;45.82;100057.53;4389645;32;33191;-85
2023/02/23 09:16:27;;;;;;;0.73;0.73;;;;;;;11.00;44.60;100060.53;4411876;32;33854;-85
2023/02/23 09:18:54;;;;;;;8.15;1.60;;;;;;;10.91;45.91;100057.41;4374085;32;33341;-85
2023/02/23 09:21:23;;;;;;;0.32;0.15;;;;;;;11.32;44.56;100063.59;4347188;32;32227;-85
2023/02/23 09:23:54;;;;;;;0.65;0.47;;;;;;;11.25;44.31;100064.78;4377275;32;32026;-85
2023/02/23 09:26:23;;;;;;;0.75;0.75;;;;;;;11.43;43.71;100058.72;4378790;32;33048;-85
2023/02/23 09:28:51;;;;;;;3.03;1.95;;;;;;;11.72;42.96;100060.09;4376065;32;34644;-85
2023/02/23 09:31:21;;;;;;;0.40;0.40;;;;;;;11.28;45.08;100068.16;4410595;32;32555;-85
2023/02/23 09:33:50;;;;;;;8.68;1.90;;;;;;;11.27;44.15;100068.22;4377061;32;33756;-85
2023/02/23 09:36:21;;;;;;;0.60;0.60;;;;;;;10.93;44.25;100068.78;4340897;32;33244;-84
2023/02/23 09:38:53;;;;;;;2.08;1.67;;;;;;;10.87;44.59;100064.63;4372063;32;34633;-85
2023/02/23 09:41:24;;;;;;;5.50;1.52;;;;;;;11.34;44.26;100068.81;4377491;32;34718;-85
2023/02/23 09:43:59;;;;;;;1.45;1.35;;;;;;;11.11;44.16;100067.13;4391078;32;33058;-84
2023/02/23 09:46:37;;;;;;;0.30;0.30;;;;;;;11.45;43.62;100064.81;4414358;32;33797;-84
2023/02/23 09:49:12;;;;;;;2.20;2.00;;;;;;;11.66;43.46;100073.59;4359970;32;34513;-84
2023/02/23 09:51:45;;;;;;;0.20;0.20;;;;;;;11.02;44.32;100069.25;4368838;32;33278;-84
2023/02/23 09:54:12;;;;;;;;;;;;;;;10.92;44.46;100067.94;4379858;32;31644;-85
2023/02/23 09:56:43;;;;;;;0.60;0.60;;;;;;;11.15;44.87;100064.31;4383632;32;33053;-84
2023/02/23 09:59:14;;;;;;;16.12;1.37;;;;;;;10.90;46.01;100063.63;4394683;32;32518;-84
2023/02/23 10:01:53;;;;;;;3.65;1.73;;;;;;;11.37;44.28;100063.41;4352142;32;32943;-83
2023/02/23 10:04:27;;;;;;;2.60;2.40;;;;;;;11.72;43.19;100059.22;4363693;32;32681;-83
2023/02/23 10:07:04;;;;;;;0.20;0.20;;;;;;;11.92;42.98;100067.19;4382597;32;33264;-84
2023/02/23 10:09:47;;;;;;;0.30;0.30;;;;;;;11.81;43.57;100074.69;4368756;32;33904;-84
2023/02/23 10:13:03;;;;;;;1.10;1.10;;;;;;;11.37;44.03;100069.56;4358542;32;33811;-84
2023/02/23 10:15:44;;;;;;;1.87;0.88;;;;;;;11.54;44.92;100067.06;4339128;32;32285;-85
2023/02/23 10:18:36;;;;;;;0.70;0.65;;;;;;;11.76;43.84;100074.03;4353680;32;33002;-84
2023/02/23 10:21:23;;;;;;;0.20;0.20;;;;;;;11.67;43.01;100077.09;4339005;32;33928;-84
2023/02/23 10:24:21;;;;;;;2.67;2.40;;;;;;;11.56;43.20;100069.62;4391882;32;33146;-84
2023/02/23 10:26:53;;;;;;;1.48;0.95;;;;;;;12.08;42.46;100077.06;4363545;32;34126;-84
2023/02/23 10:29:45;;;;;;;0.32;0.32;;;;;;;11.90;42.62;100069.03;4336368;32;33508;-84
2023/02/23 10:32:21;;;;;;;0.20;0.20;;;;;;;11.88;42.78;100070.91;4344968;32;34739;-84
2023/02/23 10:34:52;;;;;;;0.70;0.70;;;;;;;11.65;43.85;100068.38;4333441;32;33660;-85
2023/02/23 10:37:21;;;;;;;1.27;1.27;;;;;;;11.73;42.69;100069.75;4353733;32;32328;-85
2023/02/23 10:39:50;;;;;;;0.30;0.20;;;;;;;11.45;43.90;100056.88;4375748;32;34246;-84
2023/02/23 10:42:22;;;;;;;0.80;0.75;;;;;;;11.69;43.81;100054.94;4394113;32;33745;-84
2023/02/23 10:44:50;;;;;;;1.42;1.33;;;;;;;11.89;43.43;100048.78;4345372;32;34135;-84
2023/02/23 10:47:20;;;;;;;26.08;11.10;;;;;;;12.37;42.07;100047.47;4368834;32;34094;-85
2023/02/23 10:49:53;;;;;;;4.05;2.05;;;;;;;12.01;43.68;100053.53;4364080;32;34531;-85
2023/02/23 10:52:28;;;;;;;1.35;0.65;;;;;;;12.24;42.58;100041.00;4337271;32;33593;-85
2023/02/23 10:54:59;;;;;;;0.65;0.65;;;;;;;12.23;43.11;100045.44;4362214;32;33702;-85
2023/02/23 10:57:33;;;;;;;11.30;1.95;;;;;;;11.87;43.68;100042.72;4370330;32;33121;-85
2023/02/23 11:00:03;;;;;;;1.70;1.60;;;;;;;12.24;41.77;100036.56;4406718;32;33451;-85
2023/02/23 11:02:31;;;;;;;4.97;2.22;;;;;;;12.12;43.41;100033.66;4394699;32;33598;-85
2023/02/23 11:05:00;;;;;;;7.15;1.52;;;;;;;12.31;42.36;100034.50;4362073;32;33845;-85
2023/02/23 11:07:32;;;;;;;1.12;1.12;;;;;;;12.14;44.70;100030.00;4340347;32;32021;-85
2023/02/23 11:10:22;;;;;;;;;;;;;;;12.37;42.62;100031.56;4353168;32;33645;-85
2023/02/23 11:12:49;;;;;;;2.37;2.25;;;;;;;12.40;41.87;100025.28;4332272;32;34911;-85
2023/02/23 11:15:33;;;;;;;0.68;0.45;;;;;;;12.38;41.66;100022.69;4357920;32;32734;-85
2023/02/23 11:18:20;;;;;;;0.40;0.40;;;;;;;12.19;43.52;100020.03;4356365;32;34422;-85
2023/02/23 11:20:48;;;;;;;2.08;1.55;;;;;;;12.47;42.19;100010.81;4336624;32;34532;-84
2023/02/23 11:23:22;;;;;;;0.82;0.82;;;;;;;12.40;42.21;100012.91;4350090;32;33967;-85
2023/02/23 11:25:54;;;;;;;1.55;1.45;;;;;;;12.23;41.90;100013.69;4375782;32;32452;-85
2023/02/23 11:28:31;;;;;;;1.02;1.02;;;;;;;12.49;41.84;100014.25;4356352;32;32104;-84
2023/02/23 11:31:19;;;;;;;1.25;0.77;;;;;;;12.35;42.17;100011.41;4391868;32;33661;-85
2023/02/23 11:33:48;;;;;;;0.98;0.90;;;;;;;12.54;42.30;99999.84;4343031;32;32820;-85
2023/02/23 11:36:22;;;;;;;3.10;1.05;;;;;;;12.66;41.70;100000.16;4313216;32;33829;-85
2023/02/23 11:39:04;;;;;;;1.12;1.12;;;;;;;12.77;41.93;100003.13;4374382;32;33096;-86
2023/02/23 11:41:35;;;;;;;1.05;0.70;;;;;;;11.94;43.64;100007.09;4378794;32;33125;-86
2023/02/23 11:44:03;;;;;;;1.35;1.25;;;;;;;12.34;42.01;100004.38;4357505;32;33009;-83
2023/02/23 11:46:38;;;;;;;3.10;1.60;;;;;;;12.29;42.19;100001.94;4340659;32;33796;-84
2023/02/23 11:49:07;;;;;;;0.60;0.60;;;;;;;12.26;42.16;99996.81;4311986;32;32672;-85
2023/02/23 11:51:40;;;;;;;0.40;0.40;;;;;;;12.08;42.78;100003.81;4363075;32;33493;-84
2023/02/23 11:54:21;;;;;;;1.98;1.62;;;;;;;12.14;43.40;99997.38;4328159;32;34365;-85
2023/02/23 11:56:54;;;;;;;4.93;2.08;;;;;;;12.42;42.25;99987.19;4318059;32;33008;-86
2023/02/23 12:03:31;;;;;;;4.68;1.45;;;;;;;12.50;42.64;99984.19;4264258;33;33592;-88
2023/02/23 12:06:09;;;;;;;0.77;0.77;;;;;;;12.88;41.02;99984.94;4289517;33;33018;-85
2023/02/23 12:09:54;;;;;;;0.90;0.77;;;;;;;12.92;40.96;99983.00;4295399;33;33142;-86
2023/02/23 12:13:09;;;;;;;1.58;1.48;;;;;;;12.89;42.06;99981.34;4346789;32;33857;-85
2023/02/23 12:16:22;;;;;;;2.40;1.15;;;;;;;12.89;41.22;99976.03;4349833;32;34208;-86
2023/02/23 12:23:16;;;;;;;7.25;2.28;;;;;;;13.06;41.14;99967.25;4351902;32;33538;-88
2023/02/23 12:26:10;;;;;;;1.05;0.98;;;;;;;12.93;41.71;99961.69;4297573;32;33731;-86
2023/02/23 12:33:51;;;;;;;5.12;0.73;;;;;;;13.13;41.53;99952.72;4302716;32;33333;-85
2023/02/23 12:36:42;;;;;;;0.75;0.62;;;;;;;12.72;43.27;99952.16;4289553;33;34020;-85
2023/02/23 12:39:32;;;;;;;0.73;0.73;;;;;;;12.94;41.54;99951.97;4359778;32;33101;-85
2023/02/23 12:42:03;;;;;;;4.05;2.40;;;;;;;13.13;40.71;99942.13;4336203;32;33789;-84
2023/02/23 12:44:36;;;;;;;0.80;0.75;;;;;;;13.07;41.02;99938.00;4349515;32;33329;-84
2023/02/23 12:47:23;;;;;;;4.95;2.92;;;;;;;12.99;41.02;99937.53;4391934;32;33796;-84
2023/02/23 12:50:06;;;;;;;1.10;1.00;;;;;;;12.92;41.61;99933.50;4345471;32;32971;-84
2023/02/23 12:52:38;;;;;;;0.20;0.20;;;;;;;13.13;41.11;99925.34;4351129;32;34255;-85
2023/02/23 12:55:10;;;;;;;;;;;;;;;12.95;41.70;99927.16;4417260;32;34489;-84
2023/02/23 12:57:44;;;;;;;1.30;0.98;;;;;;;13.12;41.03;99926.31;4431183;32;34327;-85
2023/02/23 13:00:33;;;;;;;2.20;0.90;;;;;;;12.77;41.66;99918.34;4430918;32;33179;-84
2023/02/23 13:03:36;;;;;;;8.20;2.58;;;;;;;12.91;41.16;99918.50;4412427;32;33278;-85
2023/02/23 13:06:16;;;;;;;6.25;2.47;;;;;;;12.04;43.42;99918.41;4382449;32;33733;-84
2023/02/23 13:08:47;;;;;;;2.15;1.20;;;;;;;12.49;42.35;99911.81;4360334;32;32572;-85
2023/02/23 13:11:38;;;;;;;15.45;3.30;;;;;;;12.75;42.17;99907.84;4352511;32;33740;-84
2023/02/23 13:14:28;;;;;;;2.92;1.52;;;;;;;12.47;42.83;99905.72;4341290;32;34281;-84
2023/02/23 13:17:12;;;;;;;2.55;1.02;;;;;;;12.57;42.69;99912.28;4354855;32;34448;-85
2023/02/23 13:19:45;;;;;;;0.62;0.52;;;;;;;12.48;44.40;99902.13;4368989;32;32898;-85
2023/02/23 13:22:47;;;;;;;1.60;1.50;;;;;;;12.23;43.75;99906.94;4337123;32;34097;-84
2023/02/23 13:25:32;;;;;;;0.30;0.30;;;;;;;12.52;42.45;99895.75;4342143;32;33018;-84
2023/02/23 13:28:00;;;;;;;1.33;1.23;;;;;;;12.99;42.14;99903.06;4360994;32;34263;-85
2023/02/23 13:30:34;;;;;;;0.55;0.40;;;;;;;12.91;41.81;99904.41;4380093;32;33226;-84